createdAt,value
2024-05-09T00:03:46.715Z,9.10
2024-05-09T00:12:09.707Z,5.40
2024-05-09T00:20:37.797Z,11.50
2024-05-09T00:29:03.212Z,4.30
2024-05-09T00:37:25.851Z,5.50
2024-05-09T00:45:48.494Z,3.90
2024-05-09T00:54:11.082Z,4.10
2024-05-09T01:02:33.716Z,5.80
2024-05-09T01:10:56.345Z,6.00
2024-05-09T01:19:30.125Z,5.70
2024-05-09T01:27:52.799Z,8.90
2024-05-09T01:36:15.400Z,6.70
2024-05-09T01:44:38.035Z,4.50
2024-05-09T01:53:00.822Z,7.20
2024-05-09T02:01:23.484Z,5.30
2024-05-09T02:09:46.136Z,4.60
2024-05-09T02:18:09.911Z,7.60
2024-05-09T02:26:32.932Z,6.00
2024-05-09T02:34:55.623Z,5.20
2024-05-09T02:43:18.206Z,5.80
2024-05-09T02:51:40.833Z,4.90
2024-05-09T03:00:05.976Z,4.10
2024-05-09T03:08:28.971Z,3.90
2024-05-09T03:16:51.716Z,5.80
2024-05-09T03:25:14.275Z,6.80
2024-05-09T03:33:38.043Z,6.20
2024-05-09T03:42:00.775Z,7.00
2024-05-09T03:50:30.085Z,5.60
2024-05-09T03:58:57.508Z,5.70
2024-05-09T04:07:20.192Z,5.60
2024-05-09T04:15:42.764Z,5.70
2024-05-09T04:24:05.531Z,4.40
2024-05-09T04:32:28.451Z,6.50
2024-05-09T04:40:51.188Z,4.90
2024-05-09T04:49:14.333Z,4.60
2024-05-09T04:57:37.136Z,8.10
2024-05-09T05:06:00.003Z,6.80
2024-05-09T05:14:22.982Z,6.60
2024-05-09T05:22:45.834Z,7.80
2024-05-09T05:31:08.535Z,4.80
2024-05-09T05:39:31.226Z,4.20
2024-05-09T05:47:55.085Z,5.80
2024-05-09T05:56:17.989Z,6.40
2024-05-09T06:04:40.960Z,4.90
2024-05-09T06:13:03.730Z,5.50
2024-05-09T06:21:26.709Z,3.60
2024-05-09T06:29:49.561Z,4.90
2024-05-09T06:38:12.596Z,3.60
2024-05-09T06:46:37.120Z,5.20
2024-05-09T06:55:00.328Z,3.70
2024-05-09T07:03:23.548Z,5.40
2024-05-09T07:11:46.589Z,4.30
2024-05-09T07:20:16.202Z,3.10
2024-05-09T07:28:42.608Z,6.50
2024-05-09T07:37:10.868Z,3.80
2024-05-09T07:54:01.322Z,3.10
2024-05-09T08:02:24.607Z,3.70
2024-05-09T08:10:47.372Z,3.30
2024-05-09T08:19:10.128Z,4.10
2024-05-09T08:27:32.770Z,4.50
2024-05-09T08:35:55.380Z,2.40
2024-05-09T08:44:18.676Z,2.10
2024-05-09T08:52:41.307Z,3.40
2024-05-09T09:01:04.424Z,4.60
2024-05-09T09:09:27.838Z,2.80
2024-05-09T09:17:57.520Z,3.00
2024-05-09T09:26:20.215Z,2.40
2024-05-09T09:34:42.834Z,3.80
2024-05-09T09:43:14.134Z,2.70
2024-05-09T09:51:43.237Z,6.10
2024-05-09T10:00:11.637Z,5.20
2024-05-09T10:08:36.022Z,5.40
2024-05-09T10:17:05.208Z,3.40
2024-05-09T10:25:27.905Z,6.40
2024-05-09T10:33:52.610Z,3.00
2024-05-09T10:42:16.484Z,3.00
2024-05-09T10:50:43.718Z,3.00
2024-05-09T10:59:06.380Z,4.90
2024-05-09T11:07:29.701Z,3.90
2024-05-09T11:15:53.440Z,1.90
2024-05-09T11:24:16.776Z,2.40
2024-05-09T11:32:39.495Z,3.80
2024-05-09T11:41:03.181Z,2.40
2024-05-09T11:49:27.011Z,1.50
2024-05-09T11:57:49.798Z,2.10
2024-05-09T12:06:12.410Z,2.40
2024-05-09T12:14:35.198Z,1.70
2024-05-09T12:22:57.727Z,2.30
2024-05-09T12:31:20.444Z,3.00
2024-05-09T12:39:45.336Z,2.20
2024-05-09T12:48:12.323Z,3.40
2024-05-09T12:56:35.766Z,2.00
2024-05-09T13:04:58.564Z,4.90
2024-05-09T13:13:21.250Z,2.70
2024-05-09T13:21:43.993Z,2.50
2024-05-09T13:30:14.482Z,1.20
2024-05-09T13:38:40.404Z,1.90
2024-05-09T13:47:05.378Z,4.20
2024-05-09T13:55:28.383Z,3.70
2024-05-09T14:03:51.042Z,8.80
2024-05-09T14:12:13.707Z,1.80
2024-05-09T14:20:39.126Z,3.10
2024-05-09T14:29:02.614Z,1.40
2024-05-09T14:37:25.152Z,4.00
2024-05-09T14:45:47.788Z,11.20
2024-05-09T14:54:10.520Z,1.20
2024-05-09T15:02:34.628Z,1.80
2024-05-09T15:10:57.528Z,8.20
2024-05-09T15:19:20.773Z,7.00
2024-05-09T15:27:45.021Z,8.40
2024-05-09T15:36:08.577Z,2.40
2024-05-09T15:44:31.142Z,8.40
2024-05-09T15:52:53.667Z,2.90
2024-05-09T16:01:16.347Z,3.50
2024-05-09T16:09:39.097Z,4.10
2024-05-09T16:18:02.019Z,2.30
2024-05-09T16:26:25.661Z,5.10
2024-05-09T16:34:51.072Z,3.80
2024-05-09T16:43:13.973Z,6.60
2024-05-09T16:59:59.969Z,3.10
2024-05-09T17:08:22.803Z,2.50
2024-05-09T17:16:45.567Z,4.70
2024-05-09T17:25:08.635Z,5.40
2024-05-09T17:33:31.518Z,1.70
2024-05-09T17:41:54.182Z,19.20
2024-05-09T17:50:23.888Z,34.10
2024-05-09T17:58:50.527Z,6.20
2024-05-09T18:07:13.610Z,12.50
2024-05-09T18:15:37.260Z,8.90
2024-05-09T18:24:00.519Z,11.50
2024-05-09T18:32:23.510Z,17.30
2024-05-09T18:40:48.877Z,5.10
2024-05-09T18:49:12.549Z,4.90
2024-05-09T18:57:37.122Z,5.40
2024-05-09T19:05:59.963Z,8.80
2024-05-09T19:14:24.414Z,14.00
2024-05-09T19:22:46.920Z,15.80
2024-05-09T19:31:09.595Z,30.30
2024-05-09T19:39:32.527Z,24.80
2024-05-09T19:47:55.890Z,21.90
2024-05-09T19:56:18.500Z,19.80
2024-05-09T20:04:44.757Z,20.60
2024-05-09T20:13:08.193Z,17.30
2024-05-09T20:21:31.377Z,18.60
2024-05-09T20:29:53.935Z,15.20
2024-05-09T20:38:16.483Z,11.60
2024-05-09T20:46:38.956Z,13.10
2024-05-09T20:55:01.551Z,16.60
2024-05-09T21:03:24.950Z,12.50
2024-05-09T21:11:47.707Z,17.50
2024-05-09T21:20:17.033Z,30.90
2024-05-09T21:28:43.001Z,22.70
2024-05-09T21:37:05.596Z,24.30
2024-05-09T21:45:28.264Z,21.20
2024-05-09T21:53:50.882Z,21.60
2024-05-09T22:02:13.724Z,22.60
2024-05-09T22:10:37.161Z,19.50
2024-05-09T22:19:00.174Z,23.40
2024-05-09T22:27:22.927Z,26.00
2024-05-09T22:35:45.671Z,17.80
2024-05-09T22:44:08.314Z,20.30
2024-05-09T22:52:30.890Z,18.40
2024-05-09T23:00:53.649Z,20.30
2024-05-09T23:09:16.271Z,20.80
2024-05-09T23:17:39.036Z,15.40
2024-05-09T23:26:02.175Z,17.30
2024-05-09T23:34:25.123Z,17.20
2024-05-09T23:42:48.037Z,17.50
2024-05-09T23:51:11.346Z,19.70
2024-05-09T23:59:34.255Z,24.90
